Time;durP1;ratioP1;P1;durP2;ratioP2;P2;SDS_P1;SDS_P2;PMS_P1;PMS_P2;Temp;Humidity;BMP_temperature;BMP_pressure;BME280_temperature;BME280_humidity;BME280_pressure;Samples;Min_cycle;Max_cycle;Signal;HPM_P1;HPM_P2
2023/07/24 00:01:01;;;;;;;8.48;4.93;;;15.20;99.90;;;;;;4999836;28;20053;-85
2023/07/24 00:03:27;;;;;;;5.97;4.72;;;15.10;99.90;;;;;;5002115;28;20034;-86
2023/07/24 00:05:53;;;;;;;7.28;5.28;;;15.10;99.90;;;;;;4993491;28;20073;-85
2023/07/24 00:08:19;;;;;;;9.07;5.10;;;15.00;99.90;;;;;;4993716;28;20038;-84
2023/07/24 00:10:45;;;;;;;6.15;4.80;;;15.00;99.90;;;;;;4995962;28;20030;-85
2023/07/24 00:13:11;;;;;;;8.20;5.18;;;14.90;99.90;;;;;;4986548;28;20107;-84
2023/07/24 00:15:39;;;;;;;7.65;4.78;;;14.80;99.90;;;;;;4994655;28;20399;-85
2023/07/24 00:18:05;;;;;;;4.40;3.83;;;14.80;99.90;;;;;;4984817;28;20415;-85
2023/07/24 00:20:31;;;;;;;7.38;4.22;;;14.80;99.90;;;;;;4993934;28;20102;-85
2023/07/24 00:22:57;;;;;;;5.55;4.32;;;14.80;99.90;;;;;;4993888;28;20030;-84
2023/07/24 00:25:23;;;;;;;6.25;4.07;;;14.70;99.90;;;;;;5002753;28;20086;-83
2023/07/24 00:27:49;;;;;;;5.15;3.88;;;14.80;99.90;;;;;;4987688;28;20085;-84
2023/07/24 00:30:14;;;;;;;7.55;4.38;;;14.70;99.90;;;;;;5005543;28;20022;-86
2023/07/24 00:32:40;;;;;;;6.07;4.63;;;14.80;99.90;;;;;;5031096;28;20036;-84
2023/07/24 00:35:07;;;;;;;7.53;5.35;;;14.80;99.90;;;;;;5024929;28;20029;-85
2023/07/24 00:37:34;;;;;;;5.32;4.82;;;14.70;99.90;;;;;;5045765;28;20052;-86
2023/07/24 00:40:00;;;;;;;7.80;4.57;;;14.70;99.90;;;;;;5023129;28;20025;-85
2023/07/24 00:42:26;;;;;;;7.20;4.72;;;14.60;99.90;;;;;;5055928;28;20040;-86
2023/07/24 00:44:51;;;;;;;7.57;5.15;;;14.60;99.90;;;;;;5040013;28;20115;-84
2023/07/24 00:47:18;;;;;;;7.43;4.80;;;14.60;99.90;;;;;;5061495;28;20029;-85
2023/07/24 00:49:44;;;;;;;5.97;4.47;;;14.50;99.90;;;;;;5045059;28;20421;-86
2023/07/24 00:52:11;;;;;;;5.53;4.57;;;14.50;99.90;;;;;;5060123;28;20052;-88
2023/07/24 00:54:38;;;;;;;4.22;3.83;;;14.50;99.90;;;;;;5041350;28;20273;-89
2023/07/24 00:57:05;;;;;;;6.22;4.72;;;14.40;99.90;;;;;;5023514;28;20509;-87
2023/07/24 00:59:32;;;;;;;7.68;4.80;;;14.40;99.90;;;;;;5026797;28;20025;-88
2023/07/24 01:01:59;;;;;;;6.70;4.97;;;14.40;99.90;;;;;;5039226;28;20053;-87
2023/07/24 01:04:25;;;;;;;9.32;5.20;;;14.40;99.90;;;;;;5033327;28;20025;-90
2023/07/24 01:06:51;;;;;;;7.43;4.57;;;14.40;99.90;;;;;;5050591;28;20116;-88
2023/07/24 01:09:17;;;;;;;6.13;4.88;;;14.40;99.90;;;;;;5027685;28;20079;-89
2023/07/24 01:12:35;;;;;;;6.20;5.25;;;14.40;99.90;;;;;;5037849;28;20031;-88
2023/07/24 01:15:14;;;;;;;7.65;6.03;;;14.40;99.90;;;;;;5031177;28;20021;-87
2023/07/24 01:17:46;;;;;;;6.55;5.75;;;14.40;99.90;;;;;;5023112;28;20018;-87
2023/07/24 01:20:15;;;;;;;8.27;5.60;;;14.30;99.90;;;;;;5045613;28;20052;-87
2023/07/24 01:23:18;;;;;;;10.93;5.85;;;14.30;99.90;;;;;;5041569;28;20029;-88
2023/07/24 01:26:00;;;;;;;6.13;5.30;;;14.30;99.90;;;;;;5019815;28;20097;-87
2023/07/24 01:28:26;;;;;;;6.85;5.20;;;14.30;99.90;;;;;;5032827;28;20033;-87
2023/07/24 01:30:53;;;;;;;8.68;5.35;;;14.30;99.90;;;;;;5052070;28;20103;-87
2023/07/24 01:33:21;;;;;;;7.00;5.60;;;14.30;99.90;;;;;;5040277;28;20075;-88
2023/07/24 01:35:53;;;;;;;11.00;5.28;;;14.20;99.90;;;;;;5039575;28;20056;-85
2023/07/24 01:38:19;;;;;;;5.82;4.60;;;14.20;99.90;;;;;;5050887;28;20031;-88
2023/07/24 01:40:45;;;;;;;6.53;5.22;;;14.20;99.90;;;;;;5075908;28;20029;-87
2023/07/24 01:43:11;;;;;;;9.48;5.55;;;14.20;99.90;;;;;;5039122;28;20676;-86
2023/07/24 01:45:37;;;;;;;6.75;4.82;;;14.20;99.90;;;;;;5058115;28;20044;-87
2023/07/24 01:48:05;;;;;;;8.80;5.13;;;14.20;99.90;;;;;;5055934;28;20033;-86
2023/07/24 01:50:31;;;;;;;;;;;14.20;99.90;;;;;;5037442;28;20386;-87
2023/07/24 01:52:57;;;;;;;9.05;4.30;;;14.20;99.90;;;;;;5056012;28;19916;-86
2023/07/24 01:55:23;;;;;;;6.72;4.50;;;14.20;99.90;;;;;;5054910;28;20055;-88
2023/07/24 01:57:49;;;;;;;12.25;4.85;;;14.30;99.90;;;;;;5041516;28;20021;-87
2023/07/24 02:00:15;;;;;;;7.10;4.80;;;14.30;99.90;;;;;;5043823;28;20432;-88
2023/07/24 02:02:41;;;;;;;6.18;4.93;;;14.40;99.90;;;;;;5029970;28;20038;-88
2023/07/24 02:05:07;;;;;;;9.07;4.63;;;14.40;99.90;;;;;;5059611;28;20539;-86
2023/07/24 02:07:33;;;;;;;5.32;4.63;;;14.60;99.90;;;;;;5032473;28;20036;-84
2023/07/24 02:09:59;;;;;;;6.30;4.18;;;14.70;99.90;;;;;;5048110;28;20386;-85
2023/07/24 02:12:25;;;;;;;8.40;4.88;;;14.70;99.90;;;;;;5030188;28;20119;-85
2023/07/24 02:14:51;;;;;;;5.30;4.68;;;14.70;99.90;;;;;;5028559;28;20471;-84
2023/07/24 02:17:20;;;;;;;6.15;4.70;;;14.80;99.90;;;;;;5055012;28;20039;-85
2023/07/24 02:19:45;;;;;;;5.22;4.30;;;14.90;99.90;;;;;;5047917;28;20033;-86
2023/07/24 02:22:11;;;;;;;5.75;4.55;;;15.00;99.90;;;;;;5025339;28;20037;-87
2023/07/24 02:24:37;;;;;;;6.55;4.07;;;15.00;99.90;;;;;;5029633;28;20387;-85
2023/07/24 02:27:05;;;;;;;7.03;4.32;;;15.10;99.90;;;;;;5047930;28;20029;-84
2023/07/24 02:29:31;;;;;;;5.60;4.20;;;15.00;99.90;;;;;;5066183;28;20032;-85
2023/07/24 02:31:58;;;;;;;9.23;4.22;;;15.00;99.90;;;;;;5048770;28;20099;-87
2023/07/24 02:34:26;;;;;;;7.05;4.40;;;15.00;99.90;;;;;;5057085;28;20028;-84
2023/07/24 02:36:55;;;;;;;5.10;3.90;;;15.10;99.90;;;;;;5047512;28;20092;-85
2023/07/24 02:39:21;;;;;;;5.05;4.25;;;15.10;99.90;;;;;;5029908;28;20468;-86
2023/07/24 02:41:50;;;;;;;5.05;4.10;;;15.20;99.90;;;;;;5023771;28;20073;-87
2023/07/24 02:44:16;;;;;;;6.97;3.95;;;15.20;99.90;;;;;;5018620;28;20053;-86
2023/07/24 02:46:42;;;;;;;5.90;4.45;;;15.30;99.90;;;;;;5037864;28;20510;-86
2023/07/24 02:49:07;;;;;;;4.95;3.95;;;15.30;99.90;;;;;;5037609;28;20030;-85
2023/07/24 02:51:33;;;;;;;9.02;4.70;;;15.40;99.90;;;;;;5025426;28;20044;-86
2023/07/24 02:54:00;;;;;;;8.95;6.00;;;15.50;99.90;;;;;;5013819;28;20022;-85
2023/07/24 02:56:26;;;;;;;6.88;4.80;;;15.60;99.90;;;;;;5010009;28;20022;-86
2023/07/24 02:58:52;;;;;;;6.40;4.63;;;15.60;99.90;;;;;;5034237;28;20036;-87
2023/07/24 03:01:18;;;;;;;6.07;4.03;;;15.70;99.90;;;;;;5009253;28;20049;-87
2023/07/24 03:03:44;;;;;;;7.35;4.60;;;15.70;99.90;;;;;;5016979;28;20087;-86
2023/07/24 03:06:09;;;;;;;7.55;4.40;;;15.80;99.90;;;;;;5023815;28;20112;-86
2023/07/24 03:08:35;;;;;;;4.75;4.07;;;15.80;99.90;;;;;;5014305;28;20555;-87
2023/07/24 03:11:05;;;;;;;5.72;4.45;;;15.80;99.90;;;;;;4998272;28;20030;-87
2023/07/24 03:13:31;;;;;;;8.32;4.80;;;15.80;99.90;;;;;;5012408;28;20028;-87
2023/07/24 03:15:58;;;;;;;7.13;5.15;;;15.80;99.90;;;;;;5034769;28;20082;-87
2023/07/24 03:18:24;;;;;;;5.55;4.75;;;15.80;99.90;;;;;;5053870;28;20056;-85
2023/07/24 03:20:50;;;;;;;8.55;4.88;;;15.70;99.90;;;;;;5059146;28;20033;-86
2023/07/24 03:23:16;;;;;;;5.22;4.18;;;15.70;99.90;;;;;;5062878;28;20043;-84
2023/07/24 03:25:42;;;;;;;8.35;5.22;;;15.80;99.90;;;;;;5061779;28;20025;-87
2023/07/24 03:28:08;;;;;;;8.68;5.47;;;15.90;99.90;;;;;;5059605;28;20030;-84
2023/07/24 03:30:34;;;;;;;8.95;5.05;;;16.10;99.90;;;;;;5064450;28;20086;-88
2023/07/24 03:33:01;;;;;;;8.65;4.93;;;16.30;99.90;;;;;;5066133;28;20438;-86
2023/07/24 03:35:27;;;;;;;8.00;5.50;;;16.50;99.90;;;;;;5077399;28;20028;-86
2023/07/24 03:37:53;;;;;;;11.98;5.13;;;16.80;99.60;;;;;;5053880;28;20029;-87
2023/07/24 03:40:19;;;;;;;5.57;4.43;;;17.00;99.20;;;;;;5082336;28;20115;-88
2023/07/24 03:42:44;;;;;;;5.78;4.60;;;17.40;98.80;;;;;;5074210;28;20055;-86
2023/07/24 03:45:10;;;;;;;8.65;5.82;;;17.60;98.20;;;;;;5065697;28;20009;-87
2023/07/24 03:47:36;;;;;;;5.32;4.63;;;17.60;97.80;;;;;;5046916;28;20048;-87
2023/07/24 03:50:02;;;;;;;7.07;4.65;;;17.60;97.40;;;;;;5057968;28;20013;-88
2023/07/24 03:52:28;;;;;;;7.75;4.55;;;17.40;97.00;;;;;;5048244;28;20554;-84
2023/07/24 03:54:54;;;;;;;7.18;4.78;;;17.30;96.50;;;;;;5021033;28;20026;-83
2023/07/24 03:57:19;;;;;;;5.15;4.43;;;17.20;96.50;;;;;;5043971;28;20095;-83
2023/07/24 03:59:45;;;;;;;8.25;5.05;;;17.20;96.60;;;;;;5024928;28;20048;-87
2023/07/24 04:02:11;;;;;;;7.80;4.95;;;17.20;96.60;;;;;;5021681;28;20517;-85
2023/07/24 04:04:37;;;;;;;6.13;4.38;;;17.20;96.60;;;;;;5039182;28;20033;-83
2023/07/24 04:07:04;;;;;;;8.68;5.55;;;17.30;96.70;;;;;;5046115;28;20036;-85
2023/07/24 04:09:30;;;;;;;7.03;4.23;;;17.30;96.70;;;;;;5041039;28;20025;-84
2023/07/24 04:11:56;;;;;;;8.77;5.00;;;17.40;96.30;;;;;;5038049;28;20391;-87
2023/07/24 04:14:22;;;;;;;6.35;4.95;;;17.40;96.30;;;;;;5018995;28;20029;-87
2023/07/24 04:16:48;;;;;;;8.10;4.53;;;17.40;96.10;;;;;;5019383;28;20026;-86
2023/07/24 04:19:13;;;;;;;6.75;4.35;;;17.30;95.70;;;;;;5041695;28;20029;-87
2023/07/24 04:21:39;;;;;;;5.53;4.32;;;17.20;96.50;;;;;;5039529;28;20083;-86
2023/07/24 04:24:05;;;;;;;6.05;4.43;;;17.10;96.30;;;;;;5028089;28;20024;-85
2023/07/24 04:26:31;;;;;;;7.13;4.32;;;17.10;96.00;;;;;;5052197;28;20025;-86
2023/07/24 04:28:57;;;;;;;5.93;4.07;;;17.00;96.30;;;;;;5039376;28;20028;-87
2023/07/24 04:31:23;;;;;;;10.02;4.28;;;17.10;96.30;;;;;;5056868;28;20052;-85
2023/07/24 04:33:49;;;;;;;5.47;4.28;;;17.10;96.20;;;;;;5033117;28;20026;-87
2023/07/24 04:36:15;;;;;;;5.30;4.05;;;17.10;96.40;;;;;;5020064;28;20489;-87
2023/07/24 04:38:40;;;;;;;4.65;3.90;;;17.30;96.30;;;;;;5055401;28;20478;-85
2023/07/24 04:41:06;;;;;;;4.82;4.20;;;17.50;95.90;;;;;;5047568;28;20029;-86
2023/07/24 04:43:32;;;;;;;4.63;3.45;;;17.70;95.80;;;;;;5048148;28;20025;-85
2023/07/24 04:45:58;;;;;;;5.53;4.90;;;17.90;94.80;;;;;;5044041;28;20461;-88
2023/07/24 04:48:24;;;;;;;4.90;3.28;;;17.80;94.50;;;;;;5028560;28;20021;-88
2023/07/24 04:50:54;;;;;;;6.35;3.80;;;18.00;94.50;;;;;;5037873;28;20022;-86
2023/07/24 04:53:20;;;;;;;6.22;3.90;;;18.30;93.90;;;;;;5053354;28;20021;-87
2023/07/24 04:55:47;;;;;;;6.47;3.47;;;18.70;93.20;;;;;;5037001;28;20039;-86
2023/07/24 04:58:13;;;;;;;5.70;3.65;;;18.90;92.20;;;;;;5054671;28;20036;-87
2023/07/24 05:00:38;;;;;;;4.20;3.15;;;19.20;91.70;;;;;;5027204;28;20041;-86
2023/07/24 05:03:06;;;;;;;6.35;3.70;;;19.30;91.30;;;;;;5022380;28;20036;-86
2023/07/24 05:05:32;;;;;;;;;;;19.60;91.10;;;;;;5062903;28;20048;-87
2023/07/24 05:07:58;;;;;;;3.75;3.20;;;19.90;91.60;;;;;;5056707;28;20313;-87
2023/07/24 05:10:24;;;;;;;4.13;3.03;;;20.10;88.40;;;;;;5055874;28;20032;-85
2023/07/24 05:12:49;;;;;;;6.50;3.10;;;20.00;88.80;;;;;;5058638;28;20028;-86
2023/07/24 05:15:16;;;;;;;6.40;2.83;;;20.40;86.50;;;;;;5044514;28;20063;-85
2023/07/24 05:17:43;;;;;;;5.40;3.60;;;20.50;84.70;;;;;;5088298;28;20028;-86
2023/07/24 05:20:10;;;;;;;3.47;3.17;;;20.50;85.20;;;;;;5075929;28;20032;-87
2023/07/24 05:22:36;;;;;;;4.53;3.63;;;20.90;84.00;;;;;;5058404;28;20029;-86
2023/07/24 05:25:02;;;;;;;14.10;3.28;;;21.30;81.80;;;;;;5044989;28;20021;-86
2023/07/24 05:27:29;;;;;;;4.88;3.05;;;21.50;81.00;;;;;;5034024;28;20539;-87
2023/07/24 05:29:55;;;;;;;3.92;3.00;;;21.50;79.80;;;;;;5060673;28;20005;-86
2023/07/24 05:32:21;;;;;;;5.13;2.97;;;21.40;79.30;;;;;;5057493;28;20021;-86
2023/07/24 05:34:47;;;;;;;6.07;3.25;;;21.20;79.50;;;;;;5045440;28;20031;-88
2023/07/24 05:37:13;;;;;;;6.63;3.65;;;21.00;79.90;;;;;;5039407;28;20025;-87
2023/07/24 05:39:39;;;;;;;6.63;3.13;;;20.80;80.00;;;;;;5056234;28;20459;-84
2023/07/24 05:42:05;;;;;;;5.78;2.90;;;20.60;81.00;;;;;;5046806;28;20038;-86
2023/07/24 05:44:30;;;;;;;6.75;3.30;;;20.50;80.20;;;;;;5032132;28;20028;-85
2023/07/24 05:46:56;;;;;;;9.10;3.38;;;20.40;81.30;;;;;;5063302;28;20024;-86
2023/07/24 05:49:23;;;;;;;6.72;2.65;;;20.50;81.30;;;;;;5058097;28;20471;-89
2023/07/24 05:51:49;;;;;;;6.50;3.53;;;20.50;80.40;;;;;;5061284;28;20516;-84
2023/07/24 05:54:15;;;;;;;5.45;3.28;;;20.50;79.90;;;;;;5048831;28;20028;-88
2023/07/24 05:56:41;;;;;;;5.07;3.17;;;20.50;80.10;;;;;;5039568;28;20033;-84
2023/07/24 05:59:07;;;;;;;3.97;3.03;;;20.40;80.10;;;;;;5050300;28;20024;-86
2023/07/24 06:01:33;;;;;;;5.47;2.92;;;20.40;79.80;;;;;;5059316;28;20582;-83
2023/07/24 06:03:59;;;;;;;5.05;2.25;;;20.30;80.00;;;;;;5061904;28;20041;-85
2023/07/24 06:06:28;;;;;;;5.60;2.90;;;20.30;79.60;;;;;;5035169;28;20041;-86
2023/07/24 06:08:53;;;;;;;5.32;3.05;;;20.30;78.70;;;;;;5052913;28;20025;-91
2023/07/24 06:11:19;;;;;;;3.75;2.60;;;20.10;79.60;;;;;;5054144;28;20020;-92
2023/07/24 06:13:45;;;;;;;11.60;3.58;;;19.90;81.50;;;;;;5041238;28;20105;-95
2023/07/24 06:16:13;;;;;;;6.10;2.33;;;19.90;81.70;;;;;;5074712;28;20401;-89
2023/07/24 06:18:42;;;;;;;5.15;2.90;;;20.00;81.40;;;;;;5062793;28;20037;-93
2023/07/24 06:21:14;;;;;;;4.63;3.05;;;20.00;81.40;;;;;;5010006;28;20116;-92
2023/07/24 06:23:40;;;;;;;6.00;3.67;;;19.90;81.90;;;;;;5067721;28;20010;-90
2023/07/24 06:26:06;;;;;;;8.75;3.13;;;19.90;83.20;;;;;;5066216;28;20088;-93
2023/07/24 06:28:33;;;;;;;5.13;2.83;;;20.00;83.40;;;;;;5060512;28;20033;-92
2023/07/24 06:30:59;;;;;;;8.05;2.70;;;19.90;83.30;;;;;;5032852;28;20068;-90
2023/07/24 06:33:25;;;;;;;10.50;3.20;;;19.90;84.60;;;;;;5016047;28;20068;-92
2023/07/24 06:35:52;;;;;;;5.78;2.92;;;19.90;84.30;;;;;;5034492;28;20048;-93
2023/07/24 06:38:21;;;;;;;6.32;3.08;;;20.00;84.00;;;;;;5009219;28;20149;-93
2023/07/24 06:41:03;;;;;;;6.03;3.00;;;20.10;84.60;;;;;;5023904;28;20049;-92
2023/07/24 06:43:30;;;;;;;3.70;2.75;;;20.20;82.20;;;;;;4993296;28;20483;-91
2023/07/24 06:45:56;;;;;;;4.28;2.65;;;20.20;80.90;;;;;;5006221;28;20074;-91
2023/07/24 06:48:23;;;;;;;4.40;2.10;;;20.20;81.60;;;;;;5017698;28;20106;-92
2023/07/24 06:50:49;;;;;;;4.07;1.90;;;20.20;81.50;;;;;;4978623;28;20065;-93
2023/07/24 06:53:15;;;;;;;3.38;2.45;;;20.10;81.80;;;;;;5022230;28;20053;-92
2023/07/24 06:55:43;;;;;;;4.47;2.25;;;19.80;82.40;;;;;;4987926;28;20035;-94
2023/07/24 06:58:11;;;;;;;2.78;2.15;;;19.60;83.70;;;;;;4976385;28;20057;-92
2023/07/24 07:00:38;;;;;;;5.03;2.13;;;19.40;84.90;;;;;;4998633;28;20070;-90
2023/07/24 07:03:06;;;;;;;3.83;2.50;;;19.40;84.70;;;;;;4966108;28;20151;-92
2023/07/24 07:05:36;;;;;;;7.05;2.85;;;19.40;85.10;;;;;;4995131;28;20034;-93
2023/07/24 07:08:05;;;;;;;6.93;2.40;;;19.30;85.50;;;;;;4966390;28;20027;-92
2023/07/24 07:10:31;;;;;;;2.72;2.10;;;19.30;85.30;;;;;;5013798;28;20113;-94
2023/07/24 07:13:01;;;;;;;4.18;2.47;;;19.20;86.40;;;;;;5029501;28;20026;-94
2023/07/24 07:15:34;;;;;;;5.85;2.28;;;19.20;86.60;;;;;;5014943;28;20046;-92
2023/07/24 07:18:05;;;;;;;2.58;2.30;;;19.40;85.80;;;;;;4978942;28;20023;-87
2023/07/24 07:20:46;;;;;;;8.52;3.13;;;19.40;84.10;;;;;;4976197;28;20027;-94
2023/07/24 07:23:19;;;;;;;10.13;4.25;;;19.60;84.80;;;;;;4962228;28;20047;-89
2023/07/24 07:25:50;;;;;;;8.43;3.35;;;19.60;85.20;;;;;;4937149;29;20028;-94
2023/07/24 07:28:18;;;;;;;5.65;2.60;;;19.60;86.40;;;;;;4922740;29;20059;-94
2023/07/24 07:30:52;;;;;;;9.73;3.80;;;19.60;86.50;;;;;;4903263;29;20057;-93
2023/07/24 07:33:21;;;;;;;7.13;2.58;;;19.60;86.40;;;;;;4883020;29;20025;-94
2023/07/24 07:35:51;;;;;;;3.08;2.13;;;19.60;86.60;;;;;;4863314;29;20046;-94
2023/07/24 07:38:24;;;;;;;5.60;2.33;;;19.60;87.40;;;;;;4874236;29;20491;-92
2023/07/24 07:40:53;;;;;;;4.10;2.47;;;19.60;87.50;;;;;;4870448;29;20041;-94
2023/07/24 07:43:40;;;;;;;10.38;4.05;;;19.60;88.80;;;;;;4871409;29;20089;-91
2023/07/24 07:46:28;;;;;;;10.35;3.53;;;19.70;88.60;;;;;;4887957;29;20077;-94
2023/07/24 07:48:54;;;;;;;10.93;4.38;;;19.70;88.90;;;;;;4880128;29;20074;-93
2023/07/24 07:51:25;;;;;;;4.28;3.22;;;19.60;90.20;;;;;;4866457;29;20053;-91
2023/07/24 07:54:15;;;;;;;6.78;3.70;;;19.70;89.40;;;;;;4901871;29;20040;-93
2023/07/24 07:56:48;;;;;;;7.72;3.55;;;19.70;89.60;;;;;;4897359;29;20032;-93
2023/07/24 07:59:24;;;;;;;16.38;4.80;;;19.80;90.00;;;;;;4874737;29;20032;-89
2023/07/24 08:02:07;;;;;;;15.88;7.18;;;19.90;90.10;;;;;;4915784;29;20126;-90
2023/07/24 08:04:45;;;;;;;14.45;5.60;;;20.00;90.70;;;;;;4944055;29;20024;-92
2023/07/24 08:07:16;;;;;;;5.28;4.07;;;20.20;90.50;;;;;;4900959;29;20068;-94
2023/07/24 08:10:12;;;;;;;8.05;4.45;;;20.30;88.50;;;;;;4958157;28;20050;-93
2023/07/24 08:12:41;;;;;;;11.88;4.80;;;20.40;87.70;;;;;;4957951;28;20035;-93
2023/07/24 08:15:51;;;;;;;;;;;;;;;;;;;;;
2023/07/24 08:18:42;;;;;;;10.27;3.58;;;19.80;85.90;;;;;;4954209;29;20059;-93
2023/07/24 08:21:14;;;;;;;7.07;3.67;;;19.30;87.30;;;;;;4922862;29;20040;-90
2023/07/24 08:23:52;;;;;;;7.72;3.90;;;19.30;89.70;;;;;;4939100;28;20613;-93
2023/07/24 08:26:20;;;;;;;16.05;4.00;;;19.20;90.30;;;;;;4901693;29;20088;-92
2023/07/24 08:29:11;;;;;;;7.97;3.88;;;19.20;90.60;;;;;;4910988;29;20045;-93
2023/07/24 08:31:52;;;;;;;7.07;3.30;;;19.10;90.50;;;;;;4888714;29;20096;-94
2023/07/24 08:34:41;;;;;;;4.97;2.90;;;19.00;90.90;;;;;;4887772;29;20042;-92
2023/07/24 08:37:31;;;;;;;8.80;3.53;;;18.80;90.10;;;;;;4857429;29;20022;-91
2023/07/24 08:40:01;;;;;;;4.55;2.90;;;18.70;91.00;;;;;;4879640;29;20036;-92
2023/07/24 08:42:54;;;;;;;8.10;4.28;;;18.70;91.20;;;;;;4876808;29;20046;-93
2023/07/24 08:46:12;;;;;;;;;;;;;;;;;;;;;
2023/07/24 08:49:20;;;;;;;7.53;3.63;;;18.90;91.00;;;;;;4930333;29;20120;-83
2023/07/24 08:52:43;;;;;;;5.75;3.85;;;18.90;91.20;;;;;;4934496;29;20270;-85
2023/07/24 08:55:43;;;;;;;;;;;;;;;;;;;;;
2023/07/24 08:58:33;;;;;;;5.95;3.17;;;18.50;92.70;;;;;;4971985;28;20067;-93
2023/07/24 09:01:28;;;;;;;7.03;4.00;;;18.50;92.50;;;;;;4963790;28;20042;-86
2023/07/24 09:04:09;;;;;;;9.90;4.97;;;18.50;92.60;;;;;;4978646;28;20058;-92
2023/07/24 09:06:42;;;;;;;7.07;4.20;;;18.50;93.30;;;;;;5010653;28;20037;-93
2023/07/24 09:09:17;;;;;;;9.45;4.90;;;18.70;92.80;;;;;;5032495;28;20029;-93
2023/07/24 09:12:14;;;;;;;;;;;;;;;;;;;;;
2023/07/24 09:15:28;;;;;;;;;;;;;;;;;;;;;
2023/07/24 09:18:34;;;;;;;10.93;4.75;;;18.40;93.60;;;;;;4836614;29;20051;-94
2023/07/24 09:21:25;;;;;;;5.20;4.60;;;18.40;94.10;;;;;;4829980;29;20038;-95
2023/07/24 09:24:33;;;;;;;8.80;5.45;;;18.50;94.10;;;;;;4824272;29;20034;-95
2023/07/24 09:28:15;;;;;;;7.82;5.68;;;18.80;94.40;;;;;;4844273;29;20124;-94
2023/07/24 09:31:13;;;;;;;5.40;4.35;;;18.90;93.90;;;;;;4834727;29;20034;-93
2023/07/24 09:34:09;;;;;;;6.75;4.20;;;19.10;93.90;;;;;;4841339;29;20043;-95
2023/07/24 09:37:57;;;;;;;;;;;;;;;;;;;;;
2023/07/24 09:41:25;;;;;;;7.72;5.10;;;18.90;94.00;;;;;;4800803;29;20076;-95
2023/07/24 09:48:14;;;;;;;7.38;4.20;;;18.20;95.60;;;;;;4839344;29;20060;-94
2023/07/24 09:51:31;;;;;;;14.75;7.47;;;18.30;95.80;;;;;;4831288;29;20019;-94
2023/07/24 09:55:08;;;;;;;10.38;6.15;;;18.30;96.10;;;;;;4822388;29;20034;-95
2023/07/24 09:57:56;;;;;;;8.50;5.55;;;18.20;95.90;;;;;;4905054;29;20029;-96
2023/07/24 10:01:05;;;;;;;7.68;4.95;;;17.90;96.80;;;;;;4895868;29;20017;-91
2023/07/24 10:04:42;;;;;;;10.77;7.53;;;17.90;96.90;;;;;;4886792;29;20131;-87
2023/07/24 10:07:46;;;;;;;9.95;6.00;;;17.90;97.80;;;;;;4897885;29;20112;-94
2023/07/24 10:10:45;;;;;;;6.55;4.10;;;18.00;98.10;;;;;;4908774;29;20084;-95
2023/07/24 10:13:36;;;;;;;6.35;4.97;;;17.80;97.70;;;;;;4853006;29;20034;-93
2023/07/24 10:16:22;;;;;;;5.55;4.93;;;17.50;98.90;;;;;;4882659;29;20102;-95
2023/07/24 10:19:18;;;;;;;4.60;2.95;;;17.30;99.70;;;;;;4885090;29;20034;-92
2023/07/24 10:22:03;;;;;;;3.40;2.88;;;17.10;98.80;;;;;;4880456;29;20109;-95
2023/07/24 10:25:43;;;;;;;;;;;;;;;;;;;;;
2023/07/24 10:29:16;;;;;;;4.65;4.10;;;16.60;99.40;;;;;;4901669;29;20037;-89
2023/07/24 10:32:54;;;;;;;6.47;3.72;;;16.40;99.70;;;;;;4876125;29;20043;-91
2023/07/24 10:36:05;;;;;;;5.53;4.20;;;16.50;99.90;;;;;;4902391;29;20029;-95
2023/07/24 10:38:55;;;;;;;5.97;4.45;;;16.70;99.90;;;;;;4903200;29;20045;-90
2023/07/24 10:41:37;;;;;;;6.97;4.68;;;16.80;99.90;;;;;;4868676;29;20145;-94
2023/07/24 10:44:04;;;;;;;6.38;4.75;;;17.00;99.90;;;;;;4904109;29;20041;-96
2023/07/24 10:47:34;;;;;;;4.63;4.23;;;17.10;99.90;;;;;;4899232;29;20031;-94
2023/07/24 10:50:22;;;;;;;6.00;4.30;;;17.10;99.90;;;;;;4919760;29;20338;-94
2023/07/24 10:53:39;;;;;;;8.45;5.07;;;17.10;99.90;;;;;;4898582;29;20037;-93
2023/07/24 10:56:16;;;;;;;7.05;5.57;;;17.20;99.90;;;;;;4912617;29;20032;-92
2023/07/24 10:58:43;;;;;;;8.05;5.35;;;17.30;99.90;;;;;;4911702;28;20228;-90
2023/07/24 11:01:11;;;;;;;7.75;5.10;;;17.40;99.90;;;;;;4914889;29;20040;-92
2023/07/24 11:03:53;;;;;;;6.85;5.25;;;17.40;99.90;;;;;;4903095;29;20060;-94
2023/07/24 11:06:40;;;;;;;6.15;3.90;;;17.30;99.90;;;;;;4900293;29;20025;-93
2023/07/24 11:09:10;;;;;;;6.87;5.37;;;17.00;99.90;;;;;;4857745;29;20074;-95
2023/07/24 11:12:26;;;;;;;8.27;4.95;;;16.80;99.90;;;;;;4901398;29;20280;-87
2023/07/24 11:14:58;;;;;;;7.10;5.20;;;16.60;99.90;;;;;;4924141;29;20028;-94
2023/07/24 11:18:02;;;;;;;6.57;5.60;;;16.40;99.90;;;;;;4921240;29;20059;-94
2023/07/24 11:21:05;;;;;;;6.63;5.70;;;16.30;99.90;;;;;;4906738;29;20037;-93
2023/07/24 11:24:07;;;;;;;;;;;;;;;;;;;;;
2023/07/24 11:26:47;;;;;;;10.23;5.38;;;16.20;99.90;;;;;;4903227;29;20063;-94
2023/07/24 11:29:40;;;;;;;7.95;5.45;;;16.30;99.90;;;;;;4920283;29;20036;-94
2023/07/24 11:32:59;;;;;;;6.40;4.90;;;16.30;99.90;;;;;;4922124;28;20028;-86
2023/07/24 11:36:10;;;;;;;7.63;6.18;;;16.60;99.90;;;;;;4953773;29;20055;-94
2023/07/24 11:39:25;;;;;;;8.48;6.50;;;16.80;99.90;;;;;;4954097;28;20024;-95
2023/07/24 11:41:55;;;;;;;7.68;6.18;;;16.80;99.90;;;;;;4938489;29;20059;-93
2023/07/24 11:44:51;;;;;;;9.52;6.07;;;16.90;99.90;;;;;;4940972;29;20039;-93
2023/07/24 11:47:22;;;;;;;;;;;16.90;99.90;;;;;;4896633;29;20032;-91
2023/07/24 11:50:19;;;;;;;7.93;6.40;;;16.80;99.90;;;;;;4896586;29;19901;-92
2023/07/24 11:52:56;;;;;;;8.45;6.57;;;16.80;99.90;;;;;;4877137;29;20038;-93
2023/07/24 11:55:46;;;;;;;6.15;5.25;;;16.80;99.90;;;;;;4879086;29;20065;-91
2023/07/24 11:58:17;;;;;;;8.95;6.13;;;16.80;99.90;;;;;;4880901;29;20037;-93
2023/07/24 12:01:11;;;;;;;11.43;6.93;;;16.80;99.90;;;;;;4917110;29;20044;-92
2023/07/24 12:03:37;;;;;;;12.40;6.70;;;16.80;99.90;;;;;;4888422;29;20395;-91
2023/07/24 12:06:18;;;;;;;11.10;7.03;;;16.80;99.90;;;;;;4911484;29;20096;-92
2023/07/24 12:08:46;;;;;;;10.50;6.95;;;16.70;99.90;;;;;;4919194;29;20032;-93
2023/07/24 12:11:48;;;;;;;10.73;6.70;;;16.60;99.90;;;;;;4888710;29;20112;-87
2023/07/24 12:14:28;;;;;;;13.00;7.45;;;16.50;99.90;;;;;;4912748;29;20084;-90
2023/07/24 12:17:15;;;;;;;10.60;6.82;;;16.40;99.90;;;;;;4921177;29;20055;-93
2023/07/24 12:20:21;;;;;;;8.65;7.30;;;16.40;99.90;;;;;;4906742;29;20041;-95
2023/07/24 12:22:50;;;;;;;11.65;7.38;;;16.30;99.90;;;;;;4913242;29;20173;-94
2023/07/24 12:25:24;;;;;;;7.55;6.03;;;16.30;99.90;;;;;;4974215;28;20043;-92
2023/07/24 12:28:09;;;;;;;12.88;8.43;;;16.40;99.90;;;;;;4962569;28;20115;-87
2023/07/24 12:31:27;;;;;;;14.27;9.68;;;16.40;99.90;;;;;;4975855;28;20015;-94
2023/07/24 12:34:17;;;;;;;7.82;6.63;;;16.60;99.90;;;;;;4974025;28;20114;-88
2023/07/24 12:36:56;;;;;;;8.98;5.65;;;16.60;99.90;;;;;;4963883;28;20023;-93
2023/07/24 12:39:26;;;;;;;8.18;5.63;;;16.60;99.90;;;;;;4956880;29;20019;-93
2023/07/24 12:41:58;;;;;;;7.10;6.25;;;16.60;99.90;;;;;;4957267;29;20039;-94
2023/07/24 12:45:29;;;;;;;;;;;;;;;;;;;;;
2023/07/24 12:48:36;;;;;;;8.63;6.43;;;17.10;99.90;;;;;;4932162;28;20040;-93
2023/07/24 12:51:33;;;;;;;8.00;7.20;;;17.50;99.90;;;;;;4855804;29;20034;-95
2023/07/24 12:54:37;;;;;;;9.82;7.93;;;17.60;99.90;;;;;;4860456;29;20038;-94
2023/07/24 12:58:04;;;;;;;;;;;;;;;;;;;;;
2023/07/24 13:01:24;;;;;;;6.88;5.72;;;18.30;99.90;;;;;;4870973;29;20037;-82
2023/07/24 13:04:56;;;;;;;7.07;5.85;;;18.20;99.90;;;;;;4878172;29;20090;-94
2023/07/24 13:07:45;;;;;;;6.65;5.82;;;18.10;99.90;;;;;;4844869;29;20034;-94
2023/07/24 13:10:20;;;;;;;9.15;6.97;;;18.00;99.90;;;;;;4822769;29;20133;-96
2023/07/24 13:12:51;;;;;;;9.52;6.30;;;18.00;99.90;;;;;;4790200;29;20045;-93
2023/07/24 13:15:32;;;;;;;7.68;5.93;;;18.00;99.90;;;;;;4815122;29;20076;-94
2023/07/24 13:19:06;;;;;;;7.18;5.88;;;17.90;99.90;;;;;;4847691;29;20072;-95
2023/07/24 13:21:47;;;;;;;10.55;7.90;;;17.90;99.90;;;;;;4833300;29;20062;-85
2023/07/24 13:24:17;;;;;;;10.18;6.50;;;17.80;99.90;;;;;;4835872;29;20043;-91
2023/07/24 13:26:54;;;;;;;6.85;6.15;;;17.80;99.90;;;;;;4840048;29;20067;-92
2023/07/24 13:29:25;;;;;;;8.32;6.18;;;17.70;99.90;;;;;;4829495;29;20034;-93
2023/07/24 13:31:57;;;;;;;;;;;17.70;99.90;;;;;;4859661;29;20022;-95
2023/07/24 13:34:25;;;;;;;9.93;6.32;;;17.80;99.90;;;;;;4894453;29;19938;-93
2023/07/24 13:36:55;;;;;;;9.68;7.20;;;18.10;99.90;;;;;;4920617;28;20041;-94
2023/07/24 13:39:29;;;;;;;7.65;6.60;;;18.20;99.90;;;;;;4983199;28;20038;-92
2023/07/24 13:42:03;;;;;;;9.43;5.50;;;18.30;99.90;;;;;;4982586;28;20035;-94
2023/07/24 13:44:45;;;;;;;9.20;7.75;;;18.40;99.90;;;;;;5006935;28;20019;-93
2023/07/24 13:47:17;;;;;;;9.75;7.13;;;18.20;99.90;;;;;;4994656;28;20058;-94
2023/07/24 13:49:46;;;;;;;16.95;10.88;;;18.50;99.90;;;;;;4993621;28;20111;-94
2023/07/24 13:52:15;;;;;;;9.90;7.20;;;18.70;99.90;;;;;;5010913;28;20034;-90
2023/07/24 13:54:42;;;;;;;11.93;7.68;;;18.80;99.30;;;;;;4991578;28;20026;-91